sensor_id;sensor_type;location;lat;lon;timestamp;P1;durP1;ratioP1;P2;durP2;ratioP2
69280;SDS011;56392;51.082;17.080;2023-03-14T00:01:32;9.18;;;3.45;;
69280;SDS011;56392;51.082;17.080;2023-03-14T00:06:55;9.30;;;3.37;;
69280;SDS011;56392;51.082;17.080;2023-03-14T00:12:20;11.23;;;4.07;;
69280;SDS011;56392;51.082;17.080;2023-03-14T00:17:43;9.75;;;3.70;;
69280;SDS011;56392;51.082;17.080;2023-03-14T00:23:06;13.23;;;4.47;;
69280;SDS011;56392;51.082;17.080;2023-03-14T00:28:33;16.40;;;5.20;;
69280;SDS011;56392;51.082;17.080;2023-03-14T00:33:56;12.38;;;5.05;;
69280;SDS011;56392;51.082;17.080;2023-03-14T00:39:19;12.82;;;4.60;;
69280;SDS011;56392;51.082;17.080;2023-03-14T00:44:44;13.20;;;4.80;;
69280;SDS011;56392;51.082;17.080;2023-03-14T00:50:07;13.60;;;4.63;;
69280;SDS011;56392;51.082;17.080;2023-03-14T00:55:31;10.65;;;4.55;;
69280;SDS011;56392;51.082;17.080;2023-03-14T01:01:02;12.07;;;3.97;;
69280;SDS011;56392;51.082;17.080;2023-03-14T01:06:28;10.20;;;4.13;;
69280;SDS011;56392;51.082;17.080;2023-03-14T01:11:52;11.50;;;4.50;;
69280;SDS011;56392;51.082;17.080;2023-03-14T01:17:16;12.50;;;4.90;;
69280;SDS011;56392;51.082;17.080;2023-03-14T01:22:40;13.30;;;4.70;;
69280;SDS011;56392;51.082;17.080;2023-03-14T01:28:04;10.50;;;4.03;;
69280;SDS011;56392;51.082;17.080;2023-03-14T01:33:29;10.93;;;4.50;;
69280;SDS011;56392;51.082;17.080;2023-03-14T01:38:52;10.10;;;4.00;;
69280;SDS011;56392;51.082;17.080;2023-03-14T01:44:17;10.40;;;3.78;;
69280;SDS011;56392;51.082;17.080;2023-03-14T01:49:42;9.40;;;3.70;;
69280;SDS011;56392;51.082;17.080;2023-03-14T01:55:09;10.20;;;3.97;;
69280;SDS011;56392;51.082;17.080;2023-03-14T02:00:36;8.32;;;3.30;;
69280;SDS011;56392;51.082;17.080;2023-03-14T02:06:01;10.80;;;3.53;;
69280;SDS011;56392;51.082;17.080;2023-03-14T02:11:28;9.93;;;3.60;;
69280;SDS011;56392;51.082;17.080;2023-03-14T02:16:53;10.30;;;4.10;;
69280;SDS011;56392;51.082;17.080;2023-03-14T02:22:17;12.90;;;4.40;;
69280;SDS011;56392;51.082;17.080;2023-03-14T02:27:42;11.70;;;3.90;;
69280;SDS011;56392;51.082;17.080;2023-03-14T02:33:07;9.60;;;3.67;;
69280;SDS011;56392;51.082;17.080;2023-03-14T02:38:33;9.50;;;3.67;;
69280;SDS011;56392;51.082;17.080;2023-03-14T02:44:02;8.80;;;3.10;;
69280;SDS011;56392;51.082;17.080;2023-03-14T02:49:25;11.13;;;3.70;;
69280;SDS011;56392;51.082;17.080;2023-03-14T02:54:51;9.95;;;3.60;;
69280;SDS011;56392;51.082;17.080;2023-03-14T03:00:17;9.18;;;3.50;;
69280;SDS011;56392;51.082;17.080;2023-03-14T03:05:40;9.67;;;3.47;;
69280;SDS011;56392;51.082;17.080;2023-03-14T03:11:04;9.40;;;2.97;;
69280;SDS011;56392;51.082;17.080;2023-03-14T03:16:29;11.32;;;3.58;;
69280;SDS011;56392;51.082;17.080;2023-03-14T03:21:52;10.30;;;3.10;;
69280;SDS011;56392;51.082;17.080;2023-03-14T03:27:15;8.40;;;2.70;;
69280;SDS011;56392;51.082;17.080;2023-03-14T03:32:39;8.40;;;2.97;;
69280;SDS011;56392;51.082;17.080;2023-03-14T03:38:02;8.30;;;2.72;;
69280;SDS011;56392;51.082;17.080;2023-03-14T03:43:25;7.87;;;2.70;;
69280;SDS011;56392;51.082;17.080;2023-03-14T03:48:50;7.68;;;2.88;;
69280;SDS011;56392;51.082;17.080;2023-03-14T03:54:17;8.45;;;3.10;;
69280;SDS011;56392;51.082;17.080;2023-03-14T03:59:40;9.23;;;3.23;;
69280;SDS011;56392;51.082;17.080;2023-03-14T04:05:05;10.53;;;3.43;;
69280;SDS011;56392;51.082;17.080;2023-03-14T04:10:29;10.65;;;3.00;;
69280;SDS011;56392;51.082;17.080;2023-03-14T04:15:53;8.30;;;3.00;;
69280;SDS011;56392;51.082;17.080;2023-03-14T04:21:18;9.23;;;2.80;;
69280;SDS011;56392;51.082;17.080;2023-03-14T04:26:42;7.43;;;2.70;;
69280;SDS011;56392;51.082;17.080;2023-03-14T04:32:05;8.65;;;2.63;;
69280;SDS011;56392;51.082;17.080;2023-03-14T04:37:29;7.23;;;2.60;;
69280;SDS011;56392;51.082;17.080;2023-03-14T04:42:52;7.45;;;2.80;;
69280;SDS011;56392;51.082;17.080;2023-03-14T04:48:15;8.18;;;2.80;;
69280;SDS011;56392;51.082;17.080;2023-03-14T04:53:40;8.27;;;3.47;;
69280;SDS011;56392;51.082;17.080;2023-03-14T04:59:03;10.50;;;3.70;;
69280;SDS011;56392;51.082;17.080;2023-03-14T05:04:26;8.75;;;3.03;;
69280;SDS011;56392;51.082;17.080;2023-03-14T05:09:50;9.77;;;3.00;;
69280;SDS011;56392;51.082;17.080;2023-03-14T05:15:14;8.10;;;2.80;;
69280;SDS011;56392;51.082;17.080;2023-03-14T05:20:37;10.52;;;3.35;;
69280;SDS011;56392;51.082;17.080;2023-03-14T05:26:02;9.50;;;2.70;;
69280;SDS011;56392;51.082;17.080;2023-03-14T05:31:25;8.00;;;3.10;;
69280;SDS011;56392;51.082;17.080;2023-03-14T05:36:48;9.45;;;3.10;;
69280;SDS011;56392;51.082;17.080;2023-03-14T05:42:13;10.95;;;3.40;;
69280;SDS011;56392;51.082;17.080;2023-03-14T05:47:36;10.13;;;3.40;;
69280;SDS011;56392;51.082;17.080;2023-03-14T05:52:59;10.47;;;3.30;;
69280;SDS011;56392;51.082;17.080;2023-03-14T05:58:23;8.68;;;3.40;;
69280;SDS011;56392;51.082;17.080;2023-03-14T06:03:46;9.05;;;3.22;;
69280;SDS011;56392;51.082;17.080;2023-03-14T06:09:09;10.73;;;3.83;;
69280;SDS011;56392;51.082;17.080;2023-03-14T06:14:34;11.18;;;3.75;;
69280;SDS011;56392;51.082;17.080;2023-03-14T06:19:57;10.88;;;3.60;;
69280;SDS011;56392;51.082;17.080;2023-03-14T06:25:20;9.70;;;4.00;;
69280;SDS011;56392;51.082;17.080;2023-03-14T06:30:45;11.57;;;3.83;;
69280;SDS011;56392;51.082;17.080;2023-03-14T06:36:08;11.05;;;3.70;;
69280;SDS011;56392;51.082;17.080;2023-03-14T06:41:31;11.47;;;3.87;;
69280;SDS011;56392;51.082;17.080;2023-03-14T06:46:56;11.27;;;4.03;;
69280;SDS011;56392;51.082;17.080;2023-03-14T06:52:19;10.45;;;3.83;;
69280;SDS011;56392;51.082;17.080;2023-03-14T06:57:43;12.15;;;3.42;;
69280;SDS011;56392;51.082;17.080;2023-03-14T07:03:07;9.80;;;3.70;;
69280;SDS011;56392;51.082;17.080;2023-03-14T07:08:32;12.10;;;4.40;;
69280;SDS011;56392;51.082;17.080;2023-03-14T07:13:55;11.00;;;3.72;;
69280;SDS011;56392;51.082;17.080;2023-03-14T07:19:20;12.33;;;3.80;;
69280;SDS011;56392;51.082;17.080;2023-03-14T07:24:43;11.05;;;4.65;;
69280;SDS011;56392;51.082;17.080;2023-03-14T07:30:06;9.55;;;3.50;;
69280;SDS011;56392;51.082;17.080;2023-03-14T07:35:31;11.03;;;3.57;;
69280;SDS011;56392;51.082;17.080;2023-03-14T07:40:57;13.57;;;5.30;;
69280;SDS011;56392;51.082;17.080;2023-03-14T07:46:21;12.77;;;3.92;;
69280;SDS011;56392;51.082;17.080;2023-03-14T07:51:48;8.95;;;3.38;;
69280;SDS011;56392;51.082;17.080;2023-03-14T07:57:14;8.27;;;3.53;;
69280;SDS011;56392;51.082;17.080;2023-03-14T08:02:38;10.60;;;4.18;;
69280;SDS011;56392;51.082;17.080;2023-03-14T08:08:02;12.00;;;4.00;;
69280;SDS011;56392;51.082;17.080;2023-03-14T08:13:25;10.03;;;3.80;;
69280;SDS011;56392;51.082;17.080;2023-03-14T08:18:48;11.68;;;4.18;;
69280;SDS011;56392;51.082;17.080;2023-03-14T08:24:13;11.35;;;4.18;;
69280;SDS011;56392;51.082;17.080;2023-03-14T08:29:36;11.63;;;4.20;;
69280;SDS011;56392;51.082;17.080;2023-03-14T08:34:59;11.17;;;4.10;;
69280;SDS011;56392;51.082;17.080;2023-03-14T08:40:23;10.38;;;4.55;;
69280;SDS011;56392;51.082;17.080;2023-03-14T08:45:46;13.13;;;5.68;;
69280;SDS011;56392;51.082;17.080;2023-03-14T08:51:10;15.30;;;5.87;;
69280;SDS011;56392;51.082;17.080;2023-03-14T08:56:36;14.52;;;6.28;;
69280;SDS011;56392;51.082;17.080;2023-03-14T09:02:00;13.45;;;5.95;;
69280;SDS011;56392;51.082;17.080;2023-03-14T09:07:24;15.67;;;7.33;;
69280;SDS011;56392;51.082;17.080;2023-03-14T09:12:49;11.38;;;4.53;;
69280;SDS011;56392;51.082;17.080;2023-03-14T09:18:12;11.68;;;4.60;;
69280;SDS011;56392;51.082;17.080;2023-03-14T09:23:35;10.43;;;4.33;;
69280;SDS011;56392;51.082;17.080;2023-03-14T09:28:59;11.50;;;5.13;;
69280;SDS011;56392;51.082;17.080;2023-03-14T09:34:22;10.90;;;4.40;;
69280;SDS011;56392;51.082;17.080;2023-03-14T09:39:45;10.40;;;4.70;;
69280;SDS011;56392;51.082;17.080;2023-03-14T09:45:12;12.83;;;4.70;;
69280;SDS011;56392;51.082;17.080;2023-03-14T09:50:40;13.55;;;4.45;;
69280;SDS011;56392;51.082;17.080;2023-03-14T09:56:08;15.90;;;4.78;;
69280;SDS011;56392;51.082;17.080;2023-03-14T10:01:36;11.67;;;5.10;;
69280;SDS011;56392;51.082;17.080;2023-03-14T10:06:59;12.60;;;4.88;;
69280;SDS011;56392;51.082;17.080;2023-03-14T10:12:30;13.10;;;4.93;;
69280;SDS011;56392;51.082;17.080;2023-03-14T10:17:55;11.17;;;4.30;;
69280;SDS011;56392;51.082;17.080;2023-03-14T10:23:19;9.67;;;4.50;;
69280;SDS011;56392;51.082;17.080;2023-03-14T10:28:47;14.02;;;5.50;;
69280;SDS011;56392;51.082;17.080;2023-03-14T10:34:17;12.00;;;4.97;;
69280;SDS011;56392;51.082;17.080;2023-03-14T10:39:45;10.50;;;4.57;;
69280;SDS011;56392;51.082;17.080;2023-03-14T10:45:21;11.98;;;4.57;;
69280;SDS011;56392;51.082;17.080;2023-03-14T10:50:56;11.95;;;4.10;;
69280;SDS011;56392;51.082;17.080;2023-03-14T10:56:25;12.13;;;4.43;;
69280;SDS011;56392;51.082;17.080;2023-03-14T11:01:51;14.48;;;4.85;;
69280;SDS011;56392;51.082;17.080;2023-03-14T11:07:21;11.40;;;4.70;;
69280;SDS011;56392;51.082;17.080;2023-03-14T11:12:55;10.77;;;4.00;;
69280;SDS011;56392;51.082;17.080;2023-03-14T11:18:32;10.83;;;3.53;;
69280;SDS011;56392;51.082;17.080;2023-03-14T11:24:17;12.80;;;3.95;;
69280;SDS011;56392;51.082;17.080;2023-03-14T11:29:54;10.55;;;5.00;;
69280;SDS011;56392;51.082;17.080;2023-03-14T11:35:22;14.03;;;5.10;;
69280;SDS011;56392;51.082;17.080;2023-03-14T11:40:51;9.90;;;3.60;;
69280;SDS011;56392;51.082;17.080;2023-03-14T11:46:16;9.25;;;2.80;;
69280;SDS011;56392;51.082;17.080;2023-03-14T11:51:43;13.37;;;3.97;;
69280;SDS011;56392;51.082;17.080;2023-03-14T11:57:11;10.43;;;3.50;;
69280;SDS011;56392;51.082;17.080;2023-03-14T12:02:39;10.27;;;3.65;;
69280;SDS011;56392;51.082;17.080;2023-03-14T12:14:19;10.23;;;4.30;;
69280;SDS011;56392;51.082;17.080;2023-03-14T12:19:45;10.38;;;4.20;;
69280;SDS011;56392;51.082;17.080;2023-03-14T12:25:13;12.15;;;4.40;;
69280;SDS011;56392;51.082;17.080;2023-03-14T12:30:40;10.30;;;4.27;;
69280;SDS011;56392;51.082;17.080;2023-03-14T12:36:10;10.68;;;3.97;;
69280;SDS011;56392;51.082;17.080;2023-03-14T12:41:42;9.13;;;4.15;;
69280;SDS011;56392;51.082;17.080;2023-03-14T12:53:16;9.30;;;4.57;;
69280;SDS011;56392;51.082;17.080;2023-03-14T13:05:00;10.57;;;4.30;;
69280;SDS011;56392;51.082;17.080;2023-03-14T13:10:28;8.97;;;3.97;;
69280;SDS011;56392;51.082;17.080;2023-03-14T13:15:54;11.50;;;4.28;;
69280;SDS011;56392;51.082;17.080;2023-03-14T13:21:20;8.77;;;4.10;;
69280;SDS011;56392;51.082;17.080;2023-03-14T13:26:46;8.77;;;3.57;;
69280;SDS011;56392;51.082;17.080;2023-03-14T13:32:13;11.85;;;4.00;;
69280;SDS011;56392;51.082;17.080;2023-03-14T13:37:40;10.07;;;3.90;;
69280;SDS011;56392;51.082;17.080;2023-03-14T13:43:10;10.63;;;4.10;;
69280;SDS011;56392;51.082;17.080;2023-03-14T13:48:40;11.00;;;3.47;;
69280;SDS011;56392;51.082;17.080;2023-03-14T13:54:13;9.90;;;3.65;;
69280;SDS011;56392;51.082;17.080;2023-03-14T13:59:38;11.90;;;4.87;;
69280;SDS011;56392;51.082;17.080;2023-03-14T14:05:02;11.93;;;4.47;;
69280;SDS011;56392;51.082;17.080;2023-03-14T14:10:26;11.40;;;4.47;;
69280;SDS011;56392;51.082;17.080;2023-03-14T14:15:54;10.07;;;4.22;;
69280;SDS011;56392;51.082;17.080;2023-03-14T14:21:18;9.23;;;3.83;;
69280;SDS011;56392;51.082;17.080;2023-03-14T14:26:41;10.38;;;4.30;;
69280;SDS011;56392;51.082;17.080;2023-03-14T14:32:13;9.82;;;4.35;;
69280;SDS011;56392;51.082;17.080;2023-03-14T14:37:40;10.53;;;4.60;;
69280;SDS011;56392;51.082;17.080;2023-03-14T14:43:05;9.70;;;4.03;;
69280;SDS011;56392;51.082;17.080;2023-03-14T14:48:29;12.32;;;4.63;;
69280;SDS011;56392;51.082;17.080;2023-03-14T14:54:00;12.20;;;4.77;;
69280;SDS011;56392;51.082;17.080;2023-03-14T14:59:27;10.27;;;4.43;;
69280;SDS011;56392;51.082;17.080;2023-03-14T15:04:52;12.15;;;4.60;;
69280;SDS011;56392;51.082;17.080;2023-03-14T15:10:16;12.57;;;4.80;;
69280;SDS011;56392;51.082;17.080;2023-03-14T15:15:41;12.70;;;4.97;;
69280;SDS011;56392;51.082;17.080;2023-03-14T15:21:10;13.68;;;4.90;;
69280;SDS011;56392;51.082;17.080;2023-03-14T15:26:35;10.05;;;4.25;;
69280;SDS011;56392;51.082;17.080;2023-03-14T15:31:59;11.47;;;4.60;;
69280;SDS011;56392;51.082;17.080;2023-03-14T15:37:25;10.85;;;4.68;;
69280;SDS011;56392;51.082;17.080;2023-03-14T15:42:48;11.52;;;4.93;;
69280;SDS011;56392;51.082;17.080;2023-03-14T15:48:12;12.07;;;4.40;;
69280;SDS011;56392;51.082;17.080;2023-03-14T15:53:41;11.73;;;3.90;;
69280;SDS011;56392;51.082;17.080;2023-03-14T15:59:05;9.82;;;3.90;;
69280;SDS011;56392;51.082;17.080;2023-03-14T16:04:28;9.93;;;2.85;;
69280;SDS011;56392;51.082;17.080;2023-03-14T16:09:54;10.47;;;3.30;;
69280;SDS011;56392;51.082;17.080;2023-03-14T16:15:17;9.52;;;3.13;;
69280;SDS011;56392;51.082;17.080;2023-03-14T16:20:40;13.43;;;3.65;;
69280;SDS011;56392;51.082;17.080;2023-03-14T16:26:05;10.00;;;3.20;;
69280;SDS011;56392;51.082;17.080;2023-03-14T16:31:30;10.45;;;3.00;;
69280;SDS011;56392;51.082;17.080;2023-03-14T16:36:53;10.55;;;3.50;;
69280;SDS011;56392;51.082;17.080;2023-03-14T16:42:17;11.07;;;3.60;;
69280;SDS011;56392;51.082;17.080;2023-03-14T16:47:41;11.00;;;3.20;;
69280;SDS011;56392;51.082;17.080;2023-03-14T16:53:05;10.48;;;3.72;;
69280;SDS011;56392;51.082;17.080;2023-03-14T16:58:30;12.95;;;5.00;;
69280;SDS011;56392;51.082;17.080;2023-03-14T17:03:53;13.77;;;5.17;;
69280;SDS011;56392;51.082;17.080;2023-03-14T17:09:16;15.80;;;7.00;;
69280;SDS011;56392;51.082;17.080;2023-03-14T17:14:40;17.80;;;7.10;;
69280;SDS011;56392;51.082;17.080;2023-03-14T17:20:04;18.13;;;7.67;;
69280;SDS011;56392;51.082;17.080;2023-03-14T17:25:29;18.75;;;8.40;;
69280;SDS011;56392;51.082;17.080;2023-03-14T17:31:01;21.10;;;8.80;;
69280;SDS011;56392;51.082;17.080;2023-03-14T17:36:25;21.73;;;9.83;;
69280;SDS011;56392;51.082;17.080;2023-03-14T17:41:50;26.53;;;9.83;;
69280;SDS011;56392;51.082;17.080;2023-03-14T17:47:15;26.00;;;10.63;;
69280;SDS011;56392;51.082;17.080;2023-03-14T17:52:40;16.33;;;7.40;;
69280;SDS011;56392;51.082;17.080;2023-03-14T17:58:03;16.90;;;7.47;;
69280;SDS011;56392;51.082;17.080;2023-03-14T18:03:28;17.83;;;7.30;;
69280;SDS011;56392;51.082;17.080;2023-03-14T18:08:52;18.02;;;8.27;;
69280;SDS011;56392;51.082;17.080;2023-03-14T18:14:16;28.33;;;11.63;;
69280;SDS011;56392;51.082;17.080;2023-03-14T18:19:42;24.10;;;9.30;;
69280;SDS011;56392;51.082;17.080;2023-03-14T18:25:05;16.13;;;7.13;;
69280;SDS011;56392;51.082;17.080;2023-03-14T18:30:28;18.53;;;7.53;;
69280;SDS011;56392;51.082;17.080;2023-03-14T18:35:53;14.70;;;5.20;;
69280;SDS011;56392;51.082;17.080;2023-03-14T18:41:16;12.98;;;5.47;;
69280;SDS011;56392;51.082;17.080;2023-03-14T18:46:43;12.45;;;5.25;;
69280;SDS011;56392;51.082;17.080;2023-03-14T18:52:08;13.73;;;5.70;;
69280;SDS011;56392;51.082;17.080;2023-03-14T18:57:31;15.38;;;6.35;;
69280;SDS011;56392;51.082;17.080;2023-03-14T19:02:54;17.20;;;7.63;;
69280;SDS011;56392;51.082;17.080;2023-03-14T19:08:19;19.30;;;8.60;;
69280;SDS011;56392;51.082;17.080;2023-03-14T19:13:44;19.42;;;8.60;;
69280;SDS011;56392;51.082;17.080;2023-03-14T19:19:07;16.48;;;7.60;;
69280;SDS011;56392;51.082;17.080;2023-03-14T19:24:32;16.27;;;6.93;;
69280;SDS011;56392;51.082;17.080;2023-03-14T19:29:56;15.13;;;6.90;;
69280;SDS011;56392;51.082;17.080;2023-03-14T19:35:19;16.13;;;6.65;;
69280;SDS011;56392;51.082;17.080;2023-03-14T19:40:44;15.65;;;7.03;;
69280;SDS011;56392;51.082;17.080;2023-03-14T19:46:08;21.27;;;9.17;;
69280;SDS011;56392;51.082;17.080;2023-03-14T19:51:31;16.63;;;8.30;;
69280;SDS011;56392;51.082;17.080;2023-03-14T19:56:57;11.10;;;5.07;;
69280;SDS011;56392;51.082;17.080;2023-03-14T20:02:24;5.60;;;1.40;;
69280;SDS011;56392;51.082;17.080;2023-03-14T20:07:48;2.88;;;0.60;;
69280;SDS011;56392;51.082;17.080;2023-03-14T20:13:13;4.75;;;0.82;;
69280;SDS011;56392;51.082;17.080;2023-03-14T20:18:36;3.47;;;0.67;;
69280;SDS011;56392;51.082;17.080;2023-03-14T20:24:00;1.83;;;0.40;;
69280;SDS011;56392;51.082;17.080;2023-03-14T20:29:28;2.75;;;0.50;;
69280;SDS011;56392;51.082;17.080;2023-03-14T20:34:51;1.63;;;0.43;;
69280;SDS011;56392;51.082;17.080;2023-03-14T20:40:15;2.20;;;0.40;;
69280;SDS011;56392;51.082;17.080;2023-03-14T20:45:40;1.80;;;0.45;;
69280;SDS011;56392;51.082;17.080;2023-03-14T20:51:03;2.80;;;0.50;;
69280;SDS011;56392;51.082;17.080;2023-03-14T20:56:29;2.47;;;0.70;;
69280;SDS011;56392;51.082;17.080;2023-03-14T21:01:53;2.08;;;0.50;;
69280;SDS011;56392;51.082;17.080;2023-03-14T21:07:18;1.67;;;0.50;;
69280;SDS011;56392;51.082;17.080;2023-03-14T21:12:41;2.53;;;0.53;;
69280;SDS011;56392;51.082;17.080;2023-03-14T21:18:06;2.63;;;0.70;;
69280;SDS011;56392;51.082;17.080;2023-03-14T21:23:29;2.50;;;0.60;;
69280;SDS011;56392;51.082;17.080;2023-03-14T21:28:54;2.83;;;0.70;;
69280;SDS011;56392;51.082;17.080;2023-03-14T21:34:19;3.07;;;0.60;;
69280;SDS011;56392;51.082;17.080;2023-03-14T21:39:48;3.50;;;1.00;;
69280;SDS011;56392;51.082;17.080;2023-03-14T21:45:11;3.45;;;0.70;;
69280;SDS011;56392;51.082;17.080;2023-03-14T21:50:38;3.37;;;0.57;;
69280;SDS011;56392;51.082;17.080;2023-03-14T21:56:01;5.68;;;0.90;;
69280;SDS011;56392;51.082;17.080;2023-03-14T22:01:24;6.25;;;0.88;;
69280;SDS011;56392;51.082;17.080;2023-03-14T22:06:50;4.83;;;1.10;;
69280;SDS011;56392;51.082;17.080;2023-03-14T22:12:14;4.70;;;0.70;;
69280;SDS011;56392;51.082;17.080;2023-03-14T22:17:39;4.68;;;0.80;;
69280;SDS011;56392;51.082;17.080;2023-03-14T22:23:04;5.95;;;1.08;;
69280;SDS011;56392;51.082;17.080;2023-03-14T22:28:28;6.00;;;1.20;;
69280;SDS011;56392;51.082;17.080;2023-03-14T22:33:51;4.88;;;1.13;;
69280;SDS011;56392;51.082;17.080;2023-03-14T22:39:15;6.82;;;0.98;;
69280;SDS011;56392;51.082;17.080;2023-03-14T22:44:39;7.13;;;1.00;;
69280;SDS011;56392;51.082;17.080;2023-03-14T22:50:03;7.78;;;1.40;;
69280;SDS011;56392;51.082;17.080;2023-03-14T22:55:29;6.72;;;1.10;;
69280;SDS011;56392;51.082;17.080;2023-03-14T23:00:53;7.13;;;1.37;;
69280;SDS011;56392;51.082;17.080;2023-03-14T23:06:16;7.10;;;1.80;;
69280;SDS011;56392;51.082;17.080;2023-03-14T23:11:41;11.80;;;2.53;;
69280;SDS011;56392;51.082;17.080;2023-03-14T23:17:04;9.73;;;2.67;;
69280;SDS011;56392;51.082;17.080;2023-03-14T23:22:29;8.27;;;2.57;;
69280;SDS011;56392;51.082;17.080;2023-03-14T23:27:55;7.72;;;2.70;;
69280;SDS011;56392;51.082;17.080;2023-03-14T23:33:19;11.55;;;2.92;;
69280;SDS011;56392;51.082;17.080;2023-03-14T23:38:42;7.60;;;2.57;;
69280;SDS011;56392;51.082;17.080;2023-03-14T23:44:09;10.45;;;2.80;;
69280;SDS011;56392;51.082;17.080;2023-03-14T23:49:34;8.77;;;2.90;;
69280;SDS011;56392;51.082;17.080;2023-03-14T23:54:57;10.17;;;3.27;;
